createdAt,value
2018-05-04T00:00:50.970Z,0.00
2018-05-04T00:01:50.897Z,0.00
2018-05-04T00:02:50.903Z,0.00
2018-05-04T00:03:50.863Z,0.00
2018-05-04T00:04:51.305Z,0.00
2018-05-04T00:05:50.847Z,0.00
2018-05-04T00:06:50.826Z,0.00
2018-05-04T00:07:50.812Z,0.00
2018-05-04T00:08:50.811Z,0.00
2018-05-04T00:09:50.794Z,0.00
2018-05-04T00:10:50.814Z,0.00
2018-05-04T00:11:51.554Z,0.00
2018-05-04T00:12:50.770Z,0.00
2018-05-04T00:13:50.741Z,0.00
2018-05-04T00:14:50.726Z,0.00
2018-05-04T00:15:50.712Z,0.00
2018-05-04T00:16:50.704Z,0.00
2018-05-04T00:17:50.707Z,0.00
2018-05-04T00:18:50.681Z,0.00
2018-05-04T00:19:50.662Z,0.00
2018-05-04T00:20:50.664Z,0.00
2018-05-04T00:21:50.636Z,0.00
2018-05-04T00:22:50.677Z,0.00
2018-05-04T00:23:50.605Z,0.00
2018-05-04T00:24:50.608Z,0.00
2018-05-04T00:25:50.579Z,0.00
2018-05-04T00:26:50.566Z,0.00
2018-05-04T00:27:50.552Z,0.00
2018-05-04T00:28:50.542Z,0.00
2018-05-04T00:29:50.560Z,0.00
2018-05-04T00:30:50.516Z,0.00
2018-05-04T00:31:50.505Z,0.00
2018-05-04T00:32:50.486Z,0.00
2018-05-04T00:33:50.471Z,0.00
2018-05-04T00:34:50.493Z,0.00
2018-05-04T00:35:50.452Z,0.00
2018-05-04T00:36:50.462Z,0.00
2018-05-04T00:37:50.447Z,0.00
2018-05-04T00:38:50.408Z,0.00
2018-05-04T00:39:50.407Z,0.00
2018-05-04T00:40:50.412Z,0.00
2018-05-04T00:41:50.418Z,0.00
2018-05-04T00:42:50.394Z,0.00
2018-05-04T00:43:50.356Z,0.00
2018-05-04T00:44:50.328Z,0.00
2018-05-04T00:45:50.338Z,0.00
2018-05-04T00:46:50.304Z,0.00
2018-05-04T00:47:50.292Z,0.00
2018-05-04T00:48:50.318Z,0.00
2018-05-04T00:49:50.261Z,0.00
2018-05-04T00:50:50.269Z,0.00
2018-05-04T00:51:50.227Z,0.00
2018-05-04T00:52:50.221Z,0.00
2018-05-04T00:53:50.235Z,0.00
2018-05-04T00:54:50.198Z,0.00
2018-05-04T00:55:50.177Z,0.00
2018-05-04T00:56:50.164Z,0.00
2018-05-04T00:57:50.179Z,0.00
2018-05-04T00:58:50.206Z,0.00
2018-05-04T00:59:50.209Z,0.00
2018-05-04T01:00:50.107Z,0.00
2018-05-04T01:01:50.097Z,0.00
2018-05-04T01:02:50.092Z,0.00
2018-05-04T01:03:50.091Z,0.00
2018-05-04T01:04:50.079Z,0.00
2018-05-04T01:05:50.111Z,0.00
2018-05-04T01:06:50.030Z,0.00
2018-05-04T01:07:50.012Z,0.00
2018-05-04T01:08:50.004Z,0.00
2018-05-04T01:09:49.989Z,0.00
2018-05-04T01:10:50.020Z,0.00
2018-05-04T01:11:49.963Z,0.00
2018-05-04T01:12:49.942Z,0.00
2018-05-04T01:13:49.937Z,0.00
2018-05-04T01:14:49.932Z,0.00
2018-05-04T01:15:49.920Z,0.00
2018-05-04T01:16:49.903Z,0.00
2018-05-04T01:17:49.893Z,0.00
2018-05-04T01:18:49.870Z,0.00
2018-05-04T01:19:49.904Z,0.00
2018-05-04T01:20:49.849Z,0.00
2018-05-04T01:21:49.828Z,0.00
2018-05-04T01:22:49.803Z,0.00
2018-05-04T01:23:49.816Z,0.00
2018-05-04T01:24:49.821Z,0.00
2018-05-04T01:25:49.766Z,0.00
2018-05-04T01:26:49.794Z,0.00
2018-05-04T01:27:49.746Z,0.00
2018-05-04T01:28:49.731Z,0.00
2018-05-04T01:29:50.544Z,0.00
2018-05-04T01:30:49.712Z,0.00
2018-05-04T01:31:49.714Z,0.00
2018-05-04T01:32:49.689Z,0.00
2018-05-04T01:33:49.672Z,0.00
2018-05-04T01:34:49.658Z,0.00
2018-05-04T01:35:49.639Z,0.00
2018-05-04T01:36:50.588Z,0.00
2018-05-04T01:37:49.633Z,0.00
2018-05-04T01:38:49.601Z,0.00
2018-05-04T01:39:49.585Z,0.00
2018-05-04T01:40:49.575Z,0.00
2018-05-04T01:41:49.607Z,0.00
2018-05-04T01:42:49.631Z,0.00
2018-05-04T01:43:49.545Z,0.00
2018-05-04T01:44:49.554Z,0.00
2018-05-04T01:45:49.509Z,0.00
2018-05-04T01:46:49.486Z,0.00
2018-05-04T01:47:49.522Z,0.00
2018-05-04T01:48:49.455Z,0.00
2018-05-04T01:49:49.433Z,0.00
2018-05-04T01:50:49.441Z,0.00
2018-05-04T01:51:49.402Z,0.00
2018-05-04T01:52:49.620Z,0.00
2018-05-04T01:53:49.404Z,0.00
2018-05-04T01:54:49.386Z,0.00
2018-05-04T01:55:49.352Z,0.00
2018-05-04T01:56:49.347Z,0.00
2018-05-04T01:57:49.372Z,0.00
2018-05-04T01:58:49.372Z,0.00
2018-05-04T01:59:49.308Z,0.00
2018-05-04T02:00:49.316Z,0.00
2018-05-04T02:01:49.278Z,0.00
2018-05-04T02:02:49.261Z,0.00
2018-05-04T02:03:49.340Z,0.00
2018-05-04T02:04:49.236Z,0.00
2018-05-04T02:05:49.226Z,0.00
2018-05-04T02:06:49.210Z,0.00
2018-05-04T02:07:49.282Z,0.00
2018-05-04T02:08:49.174Z,0.00
2018-05-04T02:09:49.187Z,0.00
2018-05-04T02:10:49.166Z,0.00
2018-05-04T02:11:49.135Z,0.00
2018-05-04T02:12:49.126Z,0.00
2018-05-04T02:13:49.134Z,0.00
2018-05-04T02:14:49.099Z,0.00
2018-05-04T02:15:49.080Z,0.00
2018-05-04T02:16:49.069Z,0.00
2018-05-04T02:17:49.064Z,0.00
2018-05-04T02:18:49.184Z,0.00
2018-05-04T02:19:49.021Z,0.00
2018-05-04T02:20:49.022Z,0.00
2018-05-04T02:21:49.003Z,0.00
2018-05-04T02:22:48.983Z,0.00
2018-05-04T02:23:48.976Z,0.00
2018-05-04T02:24:49.104Z,0.00
2018-05-04T02:25:48.932Z,0.00
2018-05-04T02:26:48.937Z,0.00
2018-05-04T02:27:48.911Z,0.00
2018-05-04T02:28:48.896Z,0.00
2018-05-04T02:29:48.875Z,0.00
2018-05-04T02:30:48.874Z,0.00
2018-05-04T02:31:48.854Z,0.00
2018-05-04T02:32:48.859Z,0.00
2018-05-04T02:33:48.830Z,0.00
2018-05-04T02:34:48.818Z,0.00
2018-05-04T02:35:48.943Z,0.00
2018-05-04T02:36:48.786Z,0.00
2018-05-04T02:37:48.777Z,0.00
2018-05-04T02:38:48.762Z,0.00
2018-05-04T02:39:48.749Z,0.00
2018-05-04T02:40:48.739Z,0.00
2018-05-04T02:41:48.775Z,0.00
2018-05-04T02:42:48.699Z,0.00
2018-05-04T02:43:48.695Z,0.00
2018-05-04T02:44:48.669Z,0.00
2018-05-04T02:45:48.656Z,0.00
2018-05-04T02:46:48.706Z,0.00
2018-05-04T02:47:48.637Z,0.00
2018-05-04T02:48:48.605Z,0.00
2018-05-04T02:49:48.602Z,0.00
2018-05-04T02:50:48.592Z,0.00
2018-05-04T02:51:48.578Z,0.00
2018-05-04T02:52:48.564Z,0.00
2018-05-04T02:53:48.552Z,0.00
2018-05-04T02:54:48.526Z,0.00
2018-05-04T02:55:48.520Z,0.00
2018-05-04T02:56:48.679Z,0.00
2018-05-04T02:57:48.636Z,0.00
2018-05-04T02:58:48.476Z,0.00
2018-05-04T02:59:48.450Z,0.00
2018-05-04T03:00:48.445Z,0.00
2018-05-04T03:01:48.419Z,0.00
2018-05-04T03:02:48.413Z,0.00
2018-05-04T03:03:48.432Z,0.00
2018-05-04T03:04:48.385Z,0.00
2018-05-04T03:05:48.376Z,0.00
2018-05-04T03:06:48.356Z,0.00
2018-05-04T03:07:48.337Z,0.00
2018-05-04T03:08:48.646Z,0.00
2018-05-04T03:09:48.318Z,0.00
2018-05-04T03:10:48.319Z,0.00
2018-05-04T03:11:48.277Z,0.00
2018-05-04T03:12:48.273Z,0.00
2018-05-04T03:13:48.259Z,0.00
2018-05-04T03:14:48.262Z,0.00
2018-05-04T03:15:48.286Z,0.00
2018-05-04T03:16:48.210Z,0.00
2018-05-04T03:17:48.203Z,0.00
2018-05-04T03:18:48.184Z,0.00
2018-05-04T03:19:48.166Z,0.00
2018-05-04T03:20:48.161Z,0.00
2018-05-04T03:21:48.269Z,0.00
2018-05-04T03:22:48.120Z,0.00
2018-05-04T03:23:48.109Z,0.00
2018-05-04T03:24:48.102Z,0.00
2018-05-04T03:25:48.078Z,0.00
2018-05-04T03:26:48.063Z,0.00
2018-05-04T03:27:48.066Z,0.00
2018-05-04T03:28:48.038Z,0.00
2018-05-04T03:29:48.022Z,0.00
2018-05-04T03:30:48.021Z,0.00
2018-05-04T03:31:47.982Z,0.00
2018-05-04T03:32:48.124Z,0.00
2018-05-04T03:33:47.950Z,0.00
2018-05-04T03:34:47.956Z,0.00
2018-05-04T03:35:47.942Z,0.00
2018-05-04T03:36:47.922Z,0.00
2018-05-04T03:37:47.900Z,0.00
2018-05-04T03:38:47.937Z,0.00
2018-05-04T03:39:47.882Z,0.00
2018-05-04T03:40:47.996Z,0.00
2018-05-04T03:41:47.834Z,0.00
2018-05-04T03:42:47.857Z,0.00
2018-05-04T03:43:47.802Z,0.00
2018-05-04T03:44:47.797Z,0.00
2018-05-04T03:45:47.788Z,0.00
2018-05-04T03:46:47.769Z,0.00
2018-05-04T03:47:47.752Z,0.00
2018-05-04T03:48:47.734Z,0.00
2018-05-04T03:49:47.754Z,0.00
2018-05-04T03:50:47.693Z,0.00
2018-05-04T03:51:47.697Z,0.00
2018-05-04T03:52:47.675Z,0.00
2018-05-04T03:53:47.714Z,0.00
2018-05-04T03:54:47.657Z,0.00
2018-05-04T03:55:47.624Z,0.00
2018-05-04T03:56:47.615Z,0.00
2018-05-04T03:57:47.600Z,0.00
2018-05-04T03:58:47.619Z,0.00
2018-05-04T03:59:47.573Z,0.00
2018-05-04T04:00:47.566Z,0.00
2018-05-04T04:01:47.555Z,0.00
2018-05-04T04:02:47.567Z,0.00
2018-05-04T04:03:47.647Z,0.00
2018-05-04T04:04:47.496Z,0.00
2018-05-04T04:05:47.481Z,0.00
2018-05-04T04:06:47.467Z,0.00
2018-05-04T04:07:47.452Z,5.63
2018-05-04T04:08:47.473Z,5.63
2018-05-04T04:09:47.424Z,5.63
2018-05-04T04:10:47.445Z,5.63
2018-05-04T04:11:47.387Z,5.63
2018-05-04T04:12:47.373Z,5.63
2018-05-04T04:13:47.501Z,5.63
2018-05-04T04:14:47.344Z,5.63
2018-05-04T04:15:47.361Z,5.63
2018-05-04T04:16:47.306Z,5.63
2018-05-04T04:17:47.299Z,5.63
2018-05-04T04:18:47.288Z,5.63
2018-05-04T04:19:47.280Z,5.63
2018-05-04T04:20:47.246Z,5.63
2018-05-04T04:21:47.245Z,5.63
2018-05-04T04:22:47.220Z,11.25
2018-05-04T04:23:47.204Z,11.25
2018-05-04T04:24:47.249Z,11.25
2018-05-04T04:25:47.178Z,11.25
2018-05-04T04:26:47.176Z,11.25
2018-05-04T04:27:47.148Z,11.25
2018-05-04T04:28:47.132Z,11.25
2018-05-04T04:29:47.128Z,11.25
2018-05-04T04:30:47.159Z,11.25
2018-05-04T04:31:47.091Z,11.25
2018-05-04T04:32:47.079Z,11.25
2018-05-04T04:33:47.062Z,11.25
2018-05-04T04:34:47.057Z,11.25
2018-05-04T04:35:47.026Z,16.88
2018-05-04T04:36:47.026Z,16.88
2018-05-04T04:37:47.049Z,16.88
2018-05-04T04:38:47.116Z,16.88
2018-05-04T04:39:46.984Z,16.88
2018-05-04T04:40:46.961Z,16.88
2018-05-04T04:41:46.980Z,16.88
2018-05-04T04:42:46.985Z,16.88
2018-05-04T04:43:46.917Z,16.88
2018-05-04T04:44:47.161Z,16.88
2018-05-04T04:45:46.986Z,16.88
2018-05-04T04:46:46.862Z,16.88
2018-05-04T04:47:46.856Z,22.50
2018-05-04T04:48:46.845Z,22.50
2018-05-04T04:49:46.826Z,22.50
2018-05-04T04:50:47.721Z,22.50
2018-05-04T04:51:47.727Z,22.50
2018-05-04T04:52:46.770Z,22.50
2018-05-04T04:53:46.754Z,22.50
2018-05-04T04:54:46.903Z,22.50
2018-05-04T04:55:46.721Z,22.50
2018-05-04T04:56:46.720Z,22.50
2018-05-04T04:57:46.698Z,22.50
2018-05-04T04:58:46.678Z,22.50
2018-05-04T04:59:46.668Z,22.50
2018-05-04T05:00:49.627Z,22.50
2018-05-04T05:01:46.715Z,22.50
2018-05-04T05:02:46.626Z,28.13
2018-05-04T05:03:46.708Z,28.13
2018-05-04T05:04:46.658Z,28.13
2018-05-04T05:05:47.739Z,28.13
2018-05-04T05:06:46.753Z,28.13
2018-05-04T05:07:46.546Z,28.13
2018-05-04T05:08:46.527Z,28.13
2018-05-04T05:09:46.514Z,28.13
2018-05-04T05:10:46.527Z,28.13
2018-05-04T05:11:46.482Z,28.13
2018-05-04T05:12:46.472Z,28.13
2018-05-04T05:13:46.467Z,28.13
2018-05-04T05:14:46.450Z,28.13
2018-05-04T05:15:46.465Z,28.13
2018-05-04T05:16:46.407Z,28.13
2018-05-04T05:17:46.446Z,28.13
2018-05-04T05:18:46.394Z,28.13
2018-05-04T05:19:46.365Z,28.13
2018-05-04T05:20:46.339Z,28.13
2018-05-04T05:21:46.387Z,28.13
2018-05-04T05:22:46.324Z,28.13
2018-05-04T05:23:46.437Z,28.13
2018-05-04T05:24:46.685Z,28.13
2018-05-04T05:25:46.280Z,28.13
2018-05-04T05:26:46.268Z,28.13
2018-05-04T05:27:46.270Z,28.13
2018-05-04T05:28:46.259Z,28.13
2018-05-04T05:29:46.286Z,28.13
2018-05-04T05:30:46.201Z,28.13
2018-05-04T05:31:46.186Z,28.13
2018-05-04T05:32:46.168Z,28.13
2018-05-04T05:33:46.155Z,33.75
2018-05-04T05:34:46.139Z,33.75
2018-05-04T05:35:46.146Z,33.75
2018-05-04T05:36:46.118Z,33.75
2018-05-04T05:37:46.089Z,33.75
2018-05-04T05:38:46.085Z,33.75
2018-05-04T05:39:46.066Z,33.75
2018-05-04T05:40:46.079Z,33.75
2018-05-04T05:41:46.039Z,33.75
2018-05-04T05:42:46.087Z,33.75
2018-05-04T05:43:46.013Z,33.75
2018-05-04T05:44:46.003Z,33.75
2018-05-04T05:45:45.981Z,33.75
2018-05-04T05:46:45.975Z,33.75
2018-05-04T05:47:45.952Z,33.75
2018-05-04T05:48:45.977Z,33.75
2018-05-04T05:49:45.945Z,33.75
2018-05-04T05:50:45.906Z,33.75
2018-05-04T05:51:45.948Z,33.75
2018-05-04T05:52:45.917Z,39.38
2018-05-04T05:53:45.875Z,39.38
2018-05-04T05:54:46.027Z,39.38
2018-05-04T05:55:45.838Z,39.38
2018-05-04T05:56:45.837Z,39.38
2018-05-04T05:57:45.825Z,39.38
2018-05-04T05:58:45.878Z,39.38
2018-05-04T05:59:45.787Z,39.38
2018-05-04T06:00:46.068Z,39.38
2018-05-04T06:01:45.766Z,39.38
2018-05-04T06:02:45.759Z,39.38
2018-05-04T06:03:45.770Z,45.00
2018-05-04T06:04:45.714Z,45.00
2018-05-04T06:05:45.716Z,45.00
2018-05-04T06:06:45.704Z,45.00
2018-05-04T06:07:45.671Z,45.00
2018-05-04T06:08:45.658Z,45.00
2018-05-04T06:09:45.638Z,45.00
2018-05-04T06:10:45.639Z,50.63
2018-05-04T06:11:45.645Z,45.00
2018-05-04T06:12:45.618Z,45.00
2018-05-04T06:13:45.596Z,45.00
2018-05-04T06:14:45.576Z,45.00
2018-05-04T06:15:45.733Z,45.00
2018-05-04T06:16:45.540Z,45.00
2018-05-04T06:17:45.548Z,45.00
2018-05-04T06:18:45.520Z,45.00
2018-05-04T06:19:45.516Z,45.00
2018-05-04T06:20:45.500Z,45.00
2018-05-04T06:21:45.499Z,45.00
2018-05-04T06:22:45.473Z,45.00
2018-05-04T06:23:45.475Z,45.00
2018-05-04T06:24:45.482Z,50.63
2018-05-04T06:25:45.425Z,50.63
2018-05-04T06:26:47.216Z,50.63
2018-05-04T06:27:45.437Z,50.63
2018-05-04T06:28:45.383Z,50.63
2018-05-04T06:29:45.381Z,50.63
2018-05-04T06:30:45.451Z,50.63
2018-05-04T06:31:45.413Z,50.63
2018-05-04T06:32:45.434Z,50.63
2018-05-04T06:33:45.336Z,45.00
2018-05-04T06:34:45.315Z,50.63
2018-05-04T06:35:45.304Z,50.63
2018-05-04T06:36:45.319Z,50.63
2018-05-04T06:37:45.257Z,50.63
2018-05-04T06:38:45.280Z,45.00
2018-05-04T06:39:45.357Z,45.00
2018-05-04T06:40:45.238Z,45.00
2018-05-04T06:41:45.399Z,50.63
2018-05-04T06:42:45.215Z,50.63
2018-05-04T06:43:45.192Z,50.63
2018-05-04T06:44:45.176Z,50.63
2018-05-04T06:45:45.247Z,50.63
2018-05-04T06:46:45.151Z,50.63
2018-05-04T06:47:45.187Z,50.63
2018-05-04T06:48:45.218Z,50.63
2018-05-04T06:49:45.644Z,50.63
2018-05-04T06:50:45.271Z,50.63
2018-05-04T06:51:45.088Z,50.63
2018-05-04T06:52:45.128Z,50.63
2018-05-04T06:53:45.692Z,50.63
2018-05-04T06:54:45.050Z,50.63
2018-05-04T06:55:45.040Z,50.63
2018-05-04T06:56:45.052Z,50.63
2018-05-04T06:57:45.026Z,50.63
2018-05-04T06:58:45.001Z,50.63
2018-05-04T06:59:44.994Z,50.63
2018-05-04T07:00:45.029Z,50.63
2018-05-04T07:01:45.033Z,50.63
2018-05-04T07:02:44.955Z,50.63
2018-05-04T07:03:44.973Z,50.63
2018-05-04T07:04:44.940Z,50.63
2018-05-04T07:05:44.933Z,50.63
2018-05-04T07:06:44.922Z,50.63
2018-05-04T07:07:44.883Z,50.63
2018-05-04T07:08:44.930Z,50.63
2018-05-04T07:09:44.901Z,50.63
2018-05-04T07:10:44.869Z,50.63
2018-05-04T07:11:45.645Z,50.63
2018-05-04T07:12:44.892Z,50.63
2018-05-04T07:13:44.854Z,50.63
2018-05-04T07:14:44.802Z,50.63
2018-05-04T07:15:44.792Z,56.25
2018-05-04T07:16:44.790Z,56.25
2018-05-04T07:17:44.772Z,50.63
2018-05-04T07:18:44.833Z,50.63
2018-05-04T07:19:44.756Z,50.63
2018-05-04T07:20:44.730Z,50.63
2018-05-04T07:21:44.723Z,50.63
2018-05-04T07:22:44.715Z,56.25
2018-05-04T07:23:44.712Z,56.25
2018-05-04T07:24:44.846Z,56.25
2018-05-04T07:25:44.685Z,56.25
2018-05-04T07:26:44.699Z,56.25
2018-05-04T07:27:44.651Z,56.25
2018-05-04T07:28:44.783Z,56.25
2018-05-04T07:29:44.668Z,56.25
2018-05-04T07:30:44.707Z,56.25
2018-05-04T07:31:44.599Z,56.25
2018-05-04T07:32:44.640Z,61.88
2018-05-04T07:33:44.610Z,61.88
2018-05-04T07:34:44.585Z,61.88
2018-05-04T07:35:44.716Z,56.25
2018-05-04T07:36:44.542Z,56.25
2018-05-04T07:37:44.603Z,56.25
2018-05-04T07:38:44.570Z,61.88
2018-05-04T07:39:44.521Z,61.88
2018-05-04T07:40:44.499Z,61.88
2018-05-04T07:41:44.689Z,61.88
2018-05-04T07:42:45.232Z,61.88
2018-05-04T07:43:44.460Z,61.88
2018-05-04T07:44:45.262Z,61.88
2018-05-04T07:45:44.458Z,61.88
2018-05-04T07:46:44.468Z,61.88
2018-05-04T07:47:44.428Z,61.88
2018-05-04T07:48:44.494Z,67.50
2018-05-04T07:49:44.510Z,67.50
2018-05-04T07:50:44.407Z,67.50
2018-05-04T07:51:44.381Z,67.50
2018-05-04T07:52:44.420Z,67.50
2018-05-04T07:53:44.359Z,67.50
2018-05-04T07:54:44.357Z,67.50
2018-05-04T07:55:44.702Z,67.50
2018-05-04T07:56:44.424Z,67.50
2018-05-04T07:57:44.311Z,67.50
2018-05-04T07:58:44.294Z,67.50
2018-05-04T07:59:45.160Z,67.50
2018-05-04T08:00:44.308Z,67.50
2018-05-04T08:01:44.419Z,67.50
2018-05-04T08:02:44.295Z,67.50
2018-05-04T08:03:44.246Z,67.50
2018-05-04T08:04:44.248Z,67.50
2018-05-04T08:05:44.261Z,67.50
2018-05-04T08:06:44.203Z,73.13
2018-05-04T08:07:44.194Z,73.13
2018-05-04T08:08:44.258Z,73.13
2018-05-04T08:09:44.193Z,73.13
2018-05-04T08:10:44.166Z,73.13
2018-05-04T08:11:44.182Z,73.13
2018-05-04T08:12:44.141Z,73.13
2018-05-04T08:13:44.171Z,73.13
2018-05-04T08:14:44.228Z,73.13
2018-05-04T08:15:44.116Z,73.13
2018-05-04T08:16:44.099Z,73.13
2018-05-04T08:17:44.106Z,73.13
2018-05-04T08:18:44.105Z,73.13
2018-05-04T08:19:44.074Z,78.75
2018-05-04T08:20:44.131Z,73.13
2018-05-04T08:21:44.043Z,67.50
2018-05-04T08:22:44.045Z,78.75
2018-05-04T08:23:44.168Z,78.75
2018-05-04T08:24:44.038Z,78.75
2018-05-04T08:25:44.019Z,78.75
2018-05-04T08:26:44.155Z,78.75
2018-05-04T08:27:44.003Z,84.38
2018-05-04T08:28:44.049Z,84.38
2018-05-04T08:29:43.956Z,84.38
2018-05-04T08:30:44.003Z,84.38
2018-05-04T08:31:43.951Z,84.38
2018-05-04T08:32:44.041Z,84.38
2018-05-04T08:33:43.920Z,84.38
2018-05-04T08:34:43.940Z,84.38
2018-05-04T08:35:43.935Z,84.38
2018-05-04T08:36:43.905Z,90.00
2018-05-04T08:37:43.885Z,90.00
2018-05-04T08:38:43.927Z,90.00
2018-05-04T08:39:43.899Z,90.00
2018-05-04T08:40:43.883Z,90.00
2018-05-04T08:41:43.855Z,90.00
2018-05-04T08:42:43.987Z,90.00
2018-05-04T08:43:44.023Z,90.00
2018-05-04T08:44:43.828Z,90.00
2018-05-04T08:45:44.772Z,90.00
2018-05-04T08:46:43.814Z,90.00
2018-05-04T08:47:43.797Z,90.00
2018-05-04T08:48:43.829Z,90.00
2018-05-04T08:49:43.921Z,90.00
2018-05-04T08:50:43.767Z,90.00
2018-05-04T08:51:43.770Z,90.00
2018-05-04T08:52:43.744Z,95.63
2018-05-04T08:53:43.740Z,95.63
2018-05-04T08:54:43.756Z,95.63
2018-05-04T08:55:43.768Z,95.63
2018-05-04T08:56:43.717Z,95.63
2018-05-04T08:57:43.694Z,101.25
2018-05-04T08:58:43.700Z,101.25
2018-05-04T08:59:43.684Z,101.25
2018-05-04T09:00:43.747Z,101.25
2018-05-04T09:01:43.669Z,101.25
2018-05-04T09:02:43.694Z,101.25
2018-05-04T09:03:43.674Z,101.25
2018-05-04T09:04:43.688Z,101.25
2018-05-04T09:05:43.946Z,106.88
2018-05-04T09:06:43.624Z,106.88
2018-05-04T09:07:43.640Z,106.88
2018-05-04T09:08:43.641Z,106.88
2018-05-04T09:09:43.608Z,106.88
2018-05-04T09:10:43.602Z,112.50
2018-05-04T09:11:43.610Z,112.50
2018-05-04T09:12:43.588Z,112.50
2018-05-04T09:13:43.569Z,112.50
2018-05-04T09:14:43.572Z,118.13
2018-05-04T09:15:43.581Z,118.13
2018-05-04T09:16:43.586Z,118.13
2018-05-04T09:17:43.541Z,118.13
2018-05-04T09:18:43.523Z,118.13
2018-05-04T09:19:43.630Z,118.13
2018-05-04T09:20:43.543Z,123.75
2018-05-04T09:21:43.806Z,123.75
2018-05-04T09:22:43.503Z,123.75
2018-05-04T09:23:43.499Z,123.75
2018-05-04T09:24:43.498Z,123.75
2018-05-04T09:25:43.496Z,129.38
2018-05-04T09:26:43.507Z,129.38
2018-05-04T09:27:43.509Z,129.38
2018-05-04T09:28:43.474Z,129.38
2018-05-04T09:29:43.478Z,129.38
2018-05-04T09:30:43.520Z,129.38
2018-05-04T09:31:43.461Z,135.00
2018-05-04T09:32:43.488Z,135.00
2018-05-04T09:33:43.465Z,140.63
2018-05-04T09:34:43.487Z,140.63
2018-05-04T09:35:43.438Z,129.38
2018-05-04T09:36:43.447Z,140.63
2018-05-04T09:37:43.443Z,140.63
2018-05-04T09:38:43.448Z,140.63
2018-05-04T09:39:43.499Z,146.25
2018-05-04T09:40:43.422Z,146.25
2018-05-04T09:41:43.428Z,151.88
2018-05-04T09:42:43.422Z,146.25
2018-05-04T09:43:43.417Z,151.88
2018-05-04T09:44:43.409Z,151.88
2018-05-04T09:45:43.424Z,163.13
2018-05-04T09:46:43.429Z,163.13
2018-05-04T09:47:43.418Z,168.75
2018-05-04T09:48:43.401Z,168.75
2018-05-04T09:49:43.396Z,174.38
2018-05-04T09:50:43.453Z,174.38
2018-05-04T09:51:43.395Z,180.00
2018-05-04T09:52:43.390Z,185.63
2018-05-04T09:53:43.387Z,174.38
2018-05-04T09:54:43.403Z,191.25
2018-05-04T09:55:43.385Z,174.38
2018-05-04T09:56:43.514Z,180.00
2018-05-04T09:57:43.371Z,202.50
2018-05-04T09:58:43.386Z,219.38
2018-05-04T09:59:43.379Z,236.25
2018-05-04T10:00:43.412Z,225.00
2018-05-04T10:01:43.373Z,236.25
2018-05-04T10:02:43.399Z,230.63
2018-05-04T10:03:43.363Z,241.88
2018-05-04T10:04:43.374Z,247.50
2018-05-04T10:05:43.380Z,258.75
2018-05-04T10:06:43.380Z,258.75
2018-05-04T10:07:44.718Z,247.50
2018-05-04T10:08:43.366Z,337.50
2018-05-04T10:09:43.370Z,225.00
2018-05-04T10:10:43.392Z,191.25
2018-05-04T10:11:43.380Z,416.25
2018-05-04T10:12:43.370Z,343.13
2018-05-04T10:13:43.402Z,354.38
2018-05-04T10:14:43.398Z,388.13
2018-05-04T10:15:43.374Z,495.00
2018-05-04T10:16:43.388Z,545.63
2018-05-04T10:17:43.384Z,596.25
2018-05-04T10:18:43.483Z,680.63
2018-05-04T10:19:43.377Z,922.50
2018-05-04T10:20:43.375Z,1923.75
2018-05-04T10:21:43.385Z,2728.13
2018-05-04T10:22:43.446Z,2795.63
2018-05-04T10:23:43.380Z,2806.88
2018-05-04T10:24:43.375Z,3082.50
2018-05-04T10:25:43.387Z,3211.88
2018-05-04T10:26:43.659Z,3330.00
2018-05-04T10:27:43.383Z,3015.00
2018-05-04T10:28:43.767Z,1147.50
2018-05-04T10:29:43.382Z,590.63
2018-05-04T10:30:43.413Z,427.50
2018-05-04T10:31:43.392Z,641.25
2018-05-04T10:32:43.404Z,427.50
2018-05-04T10:33:43.395Z,911.25
2018-05-04T10:34:43.425Z,2863.13
2018-05-04T10:35:43.407Z,1563.75
2018-05-04T10:36:43.404Z,1040.63
2018-05-04T10:37:43.405Z,725.63
2018-05-04T10:38:43.414Z,748.13
2018-05-04T10:39:43.455Z,500.63
2018-05-04T10:40:43.446Z,168.75
2018-05-04T10:41:43.411Z,151.88
2018-05-04T10:42:43.415Z,174.38
2018-05-04T10:43:43.439Z,225.00
2018-05-04T10:44:43.419Z,663.75
2018-05-04T10:45:43.462Z,348.75
2018-05-04T10:46:43.446Z,247.50
2018-05-04T10:47:43.407Z,253.13
2018-05-04T10:48:43.403Z,202.50
2018-05-04T10:49:43.399Z,185.63
2018-05-04T10:50:43.423Z,185.63
2018-05-04T10:51:43.571Z,185.63
2018-05-04T10:52:43.395Z,185.63
2018-05-04T10:53:43.395Z,180.00
2018-05-04T10:54:43.388Z,180.00
2018-05-04T10:55:43.397Z,185.63
2018-05-04T10:56:43.389Z,185.63
2018-05-04T10:57:43.415Z,185.63
2018-05-04T10:58:43.392Z,433.13
2018-05-04T10:59:43.403Z,399.38
2018-05-04T11:00:43.375Z,236.25
2018-05-04T11:01:43.370Z,230.63
2018-05-04T11:02:43.407Z,410.63
2018-05-04T11:03:43.365Z,191.25
2018-05-04T11:04:43.363Z,213.75
2018-05-04T11:05:43.345Z,241.88
2018-05-04T11:06:43.438Z,483.75
2018-05-04T11:07:43.345Z,191.25
2018-05-04T11:08:43.374Z,528.75
2018-05-04T11:09:43.341Z,315.00
2018-05-04T11:10:43.328Z,253.13
2018-05-04T11:11:43.344Z,382.50
2018-05-04T11:12:43.315Z,556.88
2018-05-04T11:13:43.381Z,585.00
2018-05-04T11:14:43.310Z,388.13
2018-05-04T11:15:43.303Z,2171.25
2018-05-04T11:16:43.291Z,1006.88
2018-05-04T11:17:43.286Z,821.25
2018-05-04T11:18:43.294Z,405.00
2018-05-04T11:19:43.302Z,877.50
2018-05-04T11:20:43.471Z,478.13
2018-05-04T11:21:43.282Z,292.50
2018-05-04T11:22:43.279Z,421.88
2018-05-04T11:23:43.274Z,399.38
2018-05-04T11:24:43.277Z,343.13
2018-05-04T11:25:43.285Z,461.25
2018-05-04T11:26:43.305Z,1496.25
2018-05-04T11:27:43.250Z,1760.63
2018-05-04T11:28:43.296Z,2295.00
2018-05-04T11:29:43.250Z,2351.25
2018-05-04T11:30:43.267Z,2851.88
2018-05-04T11:31:43.225Z,3796.88
2018-05-04T11:32:43.280Z,3819.38
2018-05-04T11:33:43.264Z,3391.88
2018-05-04T11:34:43.225Z,1642.50
2018-05-04T11:35:43.236Z,2660.63
2018-05-04T11:36:43.229Z,3251.25
2018-05-04T11:37:43.219Z,1839.38
2018-05-04T11:38:43.211Z,4089.38
2018-05-04T11:39:43.225Z,3313.13
2018-05-04T11:40:43.235Z,3960.00
2018-05-04T11:41:43.287Z,2373.75
2018-05-04T11:42:43.202Z,3436.88
2018-05-04T11:43:43.216Z,3684.38
2018-05-04T11:44:43.202Z,3611.25
2018-05-04T11:45:43.206Z,3645.00
2018-05-04T11:46:43.211Z,3819.38
2018-05-04T11:47:43.243Z,3757.50
2018-05-04T11:48:43.225Z,3881.25
2018-05-04T11:49:43.321Z,3830.63
2018-05-04T11:50:43.185Z,3459.38
2018-05-04T11:51:43.206Z,4297.50
2018-05-04T11:52:43.219Z,4213.13
2018-05-04T11:53:43.257Z,3864.38
2018-05-04T11:54:43.224Z,551.25
2018-05-04T11:55:43.213Z,241.88
2018-05-04T11:56:43.188Z,326.25
2018-05-04T11:57:43.211Z,230.63
2018-05-04T11:58:43.175Z,202.50
2018-05-04T11:59:43.210Z,3600.00
2018-05-04T12:00:43.178Z,2671.88
2018-05-04T12:01:43.182Z,1653.75
2018-05-04T12:02:43.179Z,371.25
2018-05-04T12:03:43.237Z,2160.00
2018-05-04T12:04:43.187Z,804.38
2018-05-04T12:05:43.173Z,2469.38
2018-05-04T12:06:43.174Z,607.50
2018-05-04T12:07:43.161Z,180.00
2018-05-04T12:08:43.163Z,168.75
2018-05-04T12:09:43.218Z,163.13
2018-05-04T12:10:43.222Z,151.88
2018-05-04T12:11:43.173Z,157.50
2018-05-04T12:12:43.150Z,151.88
2018-05-04T12:13:43.199Z,146.25
2018-05-04T12:14:43.163Z,146.25
2018-05-04T12:15:43.211Z,146.25
2018-05-04T12:16:43.290Z,151.88
2018-05-04T12:17:43.157Z,230.63
2018-05-04T12:18:43.151Z,843.75
2018-05-04T12:19:43.189Z,781.88
2018-05-04T12:20:43.140Z,174.38
2018-05-04T12:21:43.150Z,168.75
2018-05-04T12:22:43.207Z,247.50
2018-05-04T12:23:43.139Z,292.50
2018-05-04T12:24:43.137Z,973.13
2018-05-04T12:25:43.125Z,1620.00
2018-05-04T12:26:43.176Z,348.75
2018-05-04T12:27:43.146Z,253.13
2018-05-04T12:28:43.123Z,354.38
2018-05-04T12:29:43.127Z,382.50
2018-05-04T12:30:43.114Z,714.38
2018-05-04T12:31:43.128Z,585.00
2018-05-04T12:32:43.165Z,315.00
2018-05-04T12:33:43.143Z,455.63
2018-05-04T12:34:43.117Z,174.38
2018-05-04T12:35:43.111Z,180.00
2018-05-04T12:36:43.107Z,731.25
2018-05-04T12:37:43.096Z,838.13
2018-05-04T12:38:43.090Z,309.38
2018-05-04T12:39:43.105Z,208.13
2018-05-04T12:40:43.093Z,185.63
2018-05-04T12:41:43.089Z,180.00
2018-05-04T12:42:43.084Z,208.13
2018-05-04T12:43:43.060Z,174.38
2018-05-04T12:44:43.143Z,185.63
2018-05-04T12:45:43.070Z,129.38
2018-05-04T12:46:43.053Z,168.75
2018-05-04T12:47:43.061Z,174.38
2018-05-04T12:48:43.060Z,174.38
2018-05-04T12:49:43.085Z,174.38
2018-05-04T12:50:43.047Z,146.25
2018-05-04T12:51:43.343Z,174.38